Terminal Aerodrome Forecast
Issued by NWS

Home | Current Version | Previous Version | Text Only | Print | Product List | Glossary On
Versions: 1 2 3 4 5 6 7 8 9 10 11 12 13 14 15
000
FTUS41 KBTV 261611 AAA
TAFRUT
TAF AMD
KRUT 261611Z 2616/2712 VRB05KT P6SM BKN035 OVC150
     FM261730 VRB03KT 1 1/2SM -SN BR OVC025
     FM262000 VRB03KT 1/2SM SN FG OVC010
     FM270500 00000KT 1 1/2SM -SN BR OVC020
     FM271000 33004KT P6SM OVC015
      AMD LTD TO CLD VIS AND WIND=

USA.gov is the U.S. government's official web portal to all federal, state and local government web resources and services.